Nitta Yuma, Mississippi
Current Conditions -  °F | °C
As of 9:53 PM on Wednesday 17 Dec 2014 (Local Time) from KGLH Reporting Station
Broken Clouds Broken Clouds  
Wind Chill: 39°   Ceiling: 12000
Heat Index: 43°   Visibility: 8mi
Dew Point: 37°   Wind: 6mph
Humidity: 80%   Direction: 40°NE
Pressure: 30.23"   Gusts: NA
Location:  33.02°N, 90.85°W
Report Text: KGLH 180353Z AUTO 04005KT 8SM FEW080 BKN120 06/03 A3023 RMK AO2 SLP244 T00610028
Loading
Personal Weather Stations






























Interactive Weather Map New forecast layout! Learn more

10-Day Weather Forecast

Advertisements
Track Severe Weather on mobile